Midville, GA (30441)

8:45 AM EDT on September 30, 2014 (GMT -0400)
RAWS LOUISVILLE GA US | Change Station
CLOSE
Current Station
Personal Weather Station
Location: Louisville, GA
Elevation: 311 ft
Nearby Weather Stations

Elev 311 ft 32.99 °N, 82.38 °W | Updated 42 minutes ago

Overcast
Overcast
67 °F
Feels Like 67 °F
N
1
Wind Variable Wind from NE
Gusts 3.0 mph

Today
High -- | Low -- °F
--% Chance of Precip.
Yesterday
High -- | Low -- °F
Precip. -- in
7:22 AM 7:14 PM
Waxing Crescent, 36% visible
Pressure 29.94 in
Visibility 10.0 miles
Clouds Overcast 3300 ft
Dew Point 66 °F
Humidity 95%
Rainfall 0.06 in
Snow Depth Not available.
UV 0 out of 12
Pollen 5.70 out of 12
Air Quality Not available.
Flu Activity Not available.
METAR KSBO 301235Z AUTO 05003KT 10SM OVC033 20/20 A2994 RMK AO2

More Conditions Fewer Conditions

Pressure 29.94 in
Visibility 10.0 miles
Clouds Overcast 3300 ft
Dew Point 66 °F
Humidity 95%
Rainfall 0.06 in
Snow Depth Not available.
UV 0 out of 12
Pollen 5.70 out of 12
Air Quality Not available.
Flu Activity Not available.
METAR KSBO 301235Z AUTO 05003KT 10SM OVC033 20/20 A2994 RMK AO2

More Conditions Fewer Conditions

10-Day Weather Forecast

Almanac

Astronomy

Sep. 30, 2014 Rise Set
Actual Time 7:22 AM EDT 7:14 PM EDT
Civil Twilight 6:57 AM EDT 7:39 PM EDT
Nautical Twilight 6:29 AM EDT 8:07 PM EDT
Astronomical Twilight 6:00 AM EDT 8:36 PM EDT
Moon 1:15 PM EDT 11:57 PM EDT
Length of Visible Light 12h 41m
Length of Day
11h 52m
Tomorrow will be 2m 0s shorter.
Waxing Crescent, 36% of the Moon is Illuminated
Today
Waxing Crescent
Oct 1
First Quarter
Oct 8
Full
Oct 15
Last Quarter
Oct 23
New

Today's Extremes

State Highs State Lows

Community

WunderPhotos

Upload Photos

1,757,625 photos uploaded!

Nearby

Air Quality

  Air Quality AQ Index Pollutant
Yesterday Good
PM2.5
Yesterday Good
OZONE
Tuesday Good
OZONE

Snow Depth

Station Depth Elevation
No new snow has been reported.

Earthquake Activity

City Distance Mag. Time & Date
No recent earthquake activity has been reported nearby.
Minimum magnitude displayed is 2.5.

Coastal Water Temperatures

Place Temperature
No Stations Reporting

Nearby Weather Stations